sensor_id;sensor_type;location;lat;lon;timestamp;temperature;humidity
35894;DHT22;21994;48.204;16.516;2022-11-18T00:02:08;6.10;99.90
35894;DHT22;21994;48.204;16.516;2022-11-18T00:04:34;6.20;99.90
35894;DHT22;21994;48.204;16.516;2022-11-18T00:07:00;6.40;99.90
35894;DHT22;21994;48.204;16.516;2022-11-18T00:09:26;6.20;99.90
35894;DHT22;21994;48.204;16.516;2022-11-18T00:11:51;6.30;99.90
35894;DHT22;21994;48.204;16.516;2022-11-18T00:14:35;6.30;99.90
35894;DHT22;21994;48.204;16.516;2022-11-18T00:17:03;6.30;99.90
35894;DHT22;21994;48.204;16.516;2022-11-18T00:19:31;6.30;99.90
35894;DHT22;21994;48.204;16.516;2022-11-18T00:21:58;6.40;99.90
35894;DHT22;21994;48.204;16.516;2022-11-18T00:24:24;6.30;99.90
35894;DHT22;21994;48.204;16.516;2022-11-18T00:26:50;6.30;99.90
35894;DHT22;21994;48.204;16.516;2022-11-18T00:29:16;6.40;99.90
35894;DHT22;21994;48.204;16.516;2022-11-18T00:31:45;6.30;99.90
35894;DHT22;21994;48.204;16.516;2022-11-18T00:34:12;6.20;99.90
35894;DHT22;21994;48.204;16.516;2022-11-18T00:36:39;6.20;99.90
35894;DHT22;21994;48.204;16.516;2022-11-18T00:39:05;6.20;99.90
35894;DHT22;21994;48.204;16.516;2022-11-18T00:41:31;6.20;99.90
35894;DHT22;21994;48.204;16.516;2022-11-18T00:44:15;6.20;99.90
35894;DHT22;21994;48.204;16.516;2022-11-18T00:46:41;6.30;99.90
35894;DHT22;21994;48.204;16.516;2022-11-18T00:49:07;6.30;99.90
35894;DHT22;21994;48.204;16.516;2022-11-18T00:51:33;6.30;99.90
35894;DHT22;21994;48.204;16.516;2022-11-18T00:53:59;6.30;99.90
35894;DHT22;21994;48.204;16.516;2022-11-18T00:56:25;6.50;99.90
35894;DHT22;21994;48.204;16.516;2022-11-18T00:58:51;6.50;99.90
35894;DHT22;21994;48.204;16.516;2022-11-18T01:01:17;6.50;99.90
35894;DHT22;21994;48.204;16.516;2022-11-18T01:03:42;6.40;99.90
35894;DHT22;21994;48.204;16.516;2022-11-18T01:06:08;6.40;99.90
35894;DHT22;21994;48.204;16.516;2022-11-18T01:08:34;6.40;99.90
35894;DHT22;21994;48.204;16.516;2022-11-18T01:10:59;6.40;99.90
35894;DHT22;21994;48.204;16.516;2022-11-18T01:13:49;6.40;99.90
35894;DHT22;21994;48.204;16.516;2022-11-18T01:16:19;6.40;99.90
35894;DHT22;21994;48.204;16.516;2022-11-18T01:18:48;6.40;99.90
35894;DHT22;21994;48.204;16.516;2022-11-18T01:21:14;6.40;99.90
35894;DHT22;21994;48.204;16.516;2022-11-18T01:23:40;6.40;99.90
35894;DHT22;21994;48.204;16.516;2022-11-18T01:26:08;6.40;99.90
35894;DHT22;21994;48.204;16.516;2022-11-18T01:28:35;6.60;99.90
35894;DHT22;21994;48.204;16.516;2022-11-18T01:31:02;6.60;99.90
35894;DHT22;21994;48.204;16.516;2022-11-18T01:33:29;6.50;99.90
35894;DHT22;21994;48.204;16.516;2022-11-18T01:35:54;6.40;99.90
35894;DHT22;21994;48.204;16.516;2022-11-18T01:38:20;6.40;99.90
35894;DHT22;21994;48.204;16.516;2022-11-18T01:40:49;6.30;99.90
35894;DHT22;21994;48.204;16.516;2022-11-18T01:43:16;6.40;99.90
35894;DHT22;21994;48.204;16.516;2022-11-18T01:45:43;6.40;99.90
35894;DHT22;21994;48.204;16.516;2022-11-18T01:48:12;6.50;99.90
35894;DHT22;21994;48.204;16.516;2022-11-18T01:50:49;6.50;99.90
35894;DHT22;21994;48.204;16.516;2022-11-18T01:53:25;6.40;99.90
35894;DHT22;21994;48.204;16.516;2022-11-18T01:55:54;6.60;99.90
35894;DHT22;21994;48.204;16.516;2022-11-18T01:58:32;6.80;99.90
35894;DHT22;21994;48.204;16.516;2022-11-18T02:01:03;6.70;99.90
35894;DHT22;21994;48.204;16.516;2022-11-18T02:03:29;6.80;99.90
35894;DHT22;21994;48.204;16.516;2022-11-18T02:05:56;6.70;99.90
35894;DHT22;21994;48.204;16.516;2022-11-18T02:08:24;6.90;99.90
35894;DHT22;21994;48.204;16.516;2022-11-18T02:10:50;6.80;99.90
35894;DHT22;21994;48.204;16.516;2022-11-18T02:13:16;6.70;99.90
35894;DHT22;21994;48.204;16.516;2022-11-18T02:21:45;6.70;99.90
35894;DHT22;21994;48.204;16.516;2022-11-18T02:29:23;6.60;99.90
35894;DHT22;21994;48.204;16.516;2022-11-18T02:31:56;6.60;99.90
35894;DHT22;21994;48.204;16.516;2022-11-18T02:34:29;6.60;99.90
35894;DHT22;21994;48.204;16.516;2022-11-18T02:37:11;6.70;99.90
35894;DHT22;21994;48.204;16.516;2022-11-18T02:40:25;6.70;99.90
35894;DHT22;21994;48.204;16.516;2022-11-18T02:42:33;6.80;99.90
35894;DHT22;21994;48.204;16.516;2022-11-18T02:45:01;6.90;99.90
35894;DHT22;21994;48.204;16.516;2022-11-18T02:47:30;6.90;99.90
35894;DHT22;21994;48.204;16.516;2022-11-18T02:49:58;6.90;99.90
35894;DHT22;21994;48.204;16.516;2022-11-18T02:52:26;6.80;99.90
35894;DHT22;21994;48.204;16.516;2022-11-18T02:54:52;6.70;99.90
35894;DHT22;21994;48.204;16.516;2022-11-18T02:57:20;6.70;99.90
35894;DHT22;21994;48.204;16.516;2022-11-18T02:59:46;6.70;99.90
35894;DHT22;21994;48.204;16.516;2022-11-18T03:02:14;6.80;99.90
35894;DHT22;21994;48.204;16.516;2022-11-18T03:04:40;6.60;99.90
35894;DHT22;21994;48.204;16.516;2022-11-18T03:09:38;6.70;99.90
35894;DHT22;21994;48.204;16.516;2022-11-18T03:22:42;6.50;99.90
35894;DHT22;21994;48.204;16.516;2022-11-18T03:25:26;6.40;99.90
35894;DHT22;21994;48.204;16.516;2022-11-18T03:30:27;6.50;99.90
35894;DHT22;21994;48.204;16.516;2022-11-18T03:32:55;6.40;99.90
35894;DHT22;21994;48.204;16.516;2022-11-18T03:35:25;6.40;99.90
35894;DHT22;21994;48.204;16.516;2022-11-18T03:37:53;6.40;99.90
35894;DHT22;21994;48.204;16.516;2022-11-18T03:40:25;6.50;99.90
35894;DHT22;21994;48.204;16.516;2022-11-18T03:43:12;6.40;99.90
35894;DHT22;21994;48.204;16.516;2022-11-18T03:45:43;6.40;99.90
35894;DHT22;21994;48.204;16.516;2022-11-18T03:48:13;6.40;99.90
35894;DHT22;21994;48.204;16.516;2022-11-18T03:50:43;6.40;99.90
35894;DHT22;21994;48.204;16.516;2022-11-18T03:53:11;6.50;99.90
35894;DHT22;21994;48.204;16.516;2022-11-18T03:55:39;6.50;99.90
35894;DHT22;21994;48.204;16.516;2022-11-18T03:58:09;6.40;99.90
35894;DHT22;21994;48.204;16.516;2022-11-18T04:00:45;6.40;99.90
35894;DHT22;21994;48.204;16.516;2022-11-18T04:03:13;6.40;99.90
35894;DHT22;21994;48.204;16.516;2022-11-18T04:05:39;6.40;99.90
35894;DHT22;21994;48.204;16.516;2022-11-18T04:08:07;6.40;99.90
35894;DHT22;21994;48.204;16.516;2022-11-18T04:13:22;6.40;99.90
35894;DHT22;21994;48.204;16.516;2022-11-18T04:15:50;6.50;99.90
35894;DHT22;21994;48.204;16.516;2022-11-18T04:18:18;6.40;99.90
35894;DHT22;21994;48.204;16.516;2022-11-18T04:20:43;6.40;99.90
35894;DHT22;21994;48.204;16.516;2022-11-18T04:23:09;6.40;99.90
35894;DHT22;21994;48.204;16.516;2022-11-18T04:25:35;6.40;99.90
35894;DHT22;21994;48.204;16.516;2022-11-18T04:28:01;6.50;99.90
35894;DHT22;21994;48.204;16.516;2022-11-18T04:30:27;6.50;99.90
35894;DHT22;21994;48.204;16.516;2022-11-18T04:32:52;6.50;99.90
35894;DHT22;21994;48.204;16.516;2022-11-18T04:35:18;6.30;99.90
35894;DHT22;21994;48.204;16.516;2022-11-18T04:37:44;6.30;99.90
35894;DHT22;21994;48.204;16.516;2022-11-18T04:40:10;6.20;99.90
35894;DHT22;21994;48.204;16.516;2022-11-18T04:42:36;6.20;99.90
35894;DHT22;21994;48.204;16.516;2022-11-18T04:45:02;6.00;99.90
35894;DHT22;21994;48.204;16.516;2022-11-18T04:47:28;6.20;99.90
35894;DHT22;21994;48.204;16.516;2022-11-18T04:49:53;6.20;99.90
35894;DHT22;21994;48.204;16.516;2022-11-18T04:52:19;6.10;99.90
35894;DHT22;21994;48.204;16.516;2022-11-18T04:54:45;6.10;99.90
35894;DHT22;21994;48.204;16.516;2022-11-18T04:57:11;6.00;99.90
35894;DHT22;21994;48.204;16.516;2022-11-18T04:59:37;6.00;99.90
35894;DHT22;21994;48.204;16.516;2022-11-18T05:02:03;5.90;99.90
35894;DHT22;21994;48.204;16.516;2022-11-18T05:04:29;6.10;99.90
35894;DHT22;21994;48.204;16.516;2022-11-18T05:06:57;6.20;99.90
35894;DHT22;21994;48.204;16.516;2022-11-18T05:09:24;6.50;99.90
35894;DHT22;21994;48.204;16.516;2022-11-18T05:11:50;6.40;99.90
35894;DHT22;21994;48.204;16.516;2022-11-18T05:14:35;6.40;99.90
35894;DHT22;21994;48.204;16.516;2022-11-18T05:17:02;6.30;99.90
35894;DHT22;21994;48.204;16.516;2022-11-18T05:19:29;6.50;99.90
35894;DHT22;21994;48.204;16.516;2022-11-18T05:21:55;6.40;99.90
35894;DHT22;21994;48.204;16.516;2022-11-18T05:24:21;6.30;99.90
35894;DHT22;21994;48.204;16.516;2022-11-18T05:26:49;6.40;99.90
35894;DHT22;21994;48.204;16.516;2022-11-18T05:29:16;6.40;99.90
35894;DHT22;21994;48.204;16.516;2022-11-18T05:31:43;6.40;99.90
35894;DHT22;21994;48.204;16.516;2022-11-18T05:34:09;6.50;99.90
35894;DHT22;21994;48.204;16.516;2022-11-18T05:36:35;6.40;99.90
35894;DHT22;21994;48.204;16.516;2022-11-18T05:39:01;6.30;99.90
35894;DHT22;21994;48.204;16.516;2022-11-18T05:41:28;6.20;99.90
35894;DHT22;21994;48.204;16.516;2022-11-18T05:44:13;6.20;99.90
35894;DHT22;21994;48.204;16.516;2022-11-18T05:46:38;6.20;99.90
35894;DHT22;21994;48.204;16.516;2022-11-18T05:49:04;6.30;99.90
35894;DHT22;21994;48.204;16.516;2022-11-18T05:51:30;6.30;99.90
35894;DHT22;21994;48.204;16.516;2022-11-18T05:53:59;6.30;99.90
35894;DHT22;21994;48.204;16.516;2022-11-18T05:56:28;6.30;99.90
35894;DHT22;21994;48.204;16.516;2022-11-18T05:58:57;6.20;99.90
35894;DHT22;21994;48.204;16.516;2022-11-18T06:01:25;6.20;99.90
35894;DHT22;21994;48.204;16.516;2022-11-18T06:03:55;6.30;99.90
35894;DHT22;21994;48.204;16.516;2022-11-18T06:06:20;6.30;99.90
35894;DHT22;21994;48.204;16.516;2022-11-18T06:08:52;6.30;99.90
35894;DHT22;21994;48.204;16.516;2022-11-18T06:11:21;6.40;99.90
35894;DHT22;21994;48.204;16.516;2022-11-18T06:13:52;6.40;99.90
35894;DHT22;21994;48.204;16.516;2022-11-18T06:16:21;6.40;99.90
35894;DHT22;21994;48.204;16.516;2022-11-18T06:18:49;6.30;99.90
35894;DHT22;21994;48.204;16.516;2022-11-18T06:21:15;6.20;99.90
35894;DHT22;21994;48.204;16.516;2022-11-18T06:23:41;6.30;99.90
35894;DHT22;21994;48.204;16.516;2022-11-18T06:26:07;6.30;99.90
35894;DHT22;21994;48.204;16.516;2022-11-18T06:28:34;6.30;99.90
35894;DHT22;21994;48.204;16.516;2022-11-18T06:31:00;6.40;99.90
35894;DHT22;21994;48.204;16.516;2022-11-18T06:33:26;6.40;99.90
35894;DHT22;21994;48.204;16.516;2022-11-18T06:35:51;6.40;99.90
35894;DHT22;21994;48.204;16.516;2022-11-18T06:38:17;6.30;99.90
35894;DHT22;21994;48.204;16.516;2022-11-18T06:40:43;6.20;99.90
35894;DHT22;21994;48.204;16.516;2022-11-18T06:43:09;6.20;99.90
35894;DHT22;21994;48.204;16.516;2022-11-18T06:46:01;6.20;99.90
35894;DHT22;21994;48.204;16.516;2022-11-18T06:48:46;6.20;99.90
35894;DHT22;21994;48.204;16.516;2022-11-18T06:51:11;6.20;99.90
35894;DHT22;21994;48.204;16.516;2022-11-18T06:53:37;6.20;99.90
35894;DHT22;21994;48.204;16.516;2022-11-18T06:56:07;6.20;99.90
35894;DHT22;21994;48.204;16.516;2022-11-18T06:58:34;6.20;99.90
35894;DHT22;21994;48.204;16.516;2022-11-18T07:03:37;6.10;99.90
35894;DHT22;21994;48.204;16.516;2022-11-18T07:06:03;6.30;99.90
35894;DHT22;21994;48.204;16.516;2022-11-18T07:08:29;6.50;99.90
35894;DHT22;21994;48.204;16.516;2022-11-18T07:10:55;6.30;99.90
35894;DHT22;21994;48.204;16.516;2022-11-18T07:13:21;6.30;99.90
35894;DHT22;21994;48.204;16.516;2022-11-18T07:15:46;6.30;99.90
35894;DHT22;21994;48.204;16.516;2022-11-18T07:18:13;6.20;99.90
35894;DHT22;21994;48.204;16.516;2022-11-18T07:20:39;6.20;99.90
35894;DHT22;21994;48.204;16.516;2022-11-18T07:23:05;6.30;99.90
35894;DHT22;21994;48.204;16.516;2022-11-18T07:25:30;6.40;99.90
35894;DHT22;21994;48.204;16.516;2022-11-18T07:27:57;6.30;99.90
35894;DHT22;21994;48.204;16.516;2022-11-18T07:30:22;6.30;99.90
35894;DHT22;21994;48.204;16.516;2022-11-18T07:32:48;6.50;99.90
35894;DHT22;21994;48.204;16.516;2022-11-18T07:35:14;6.50;99.90
35894;DHT22;21994;48.204;16.516;2022-11-18T07:37:41;6.60;99.90
35894;DHT22;21994;48.204;16.516;2022-11-18T07:40:07;6.60;99.90
35894;DHT22;21994;48.204;16.516;2022-11-18T07:42:33;6.70;99.90
35894;DHT22;21994;48.204;16.516;2022-11-18T07:45:08;6.60;99.90
35894;DHT22;21994;48.204;16.516;2022-11-18T07:47:37;6.60;99.90
35894;DHT22;21994;48.204;16.516;2022-11-18T07:50:03;6.60;99.90
35894;DHT22;21994;48.204;16.516;2022-11-18T07:52:29;6.50;99.90
35894;DHT22;21994;48.204;16.516;2022-11-18T07:54:55;6.60;99.90
35894;DHT22;21994;48.204;16.516;2022-11-18T07:57:21;6.80;99.90
35894;DHT22;21994;48.204;16.516;2022-11-18T07:59:46;6.90;99.90
35894;DHT22;21994;48.204;16.516;2022-11-18T08:02:12;6.80;99.90
35894;DHT22;21994;48.204;16.516;2022-11-18T08:04:38;7.00;99.90
35894;DHT22;21994;48.204;16.516;2022-11-18T08:07:04;6.90;99.90
35894;DHT22;21994;48.204;16.516;2022-11-18T08:09:29;6.80;99.90
35894;DHT22;21994;48.204;16.516;2022-11-18T08:11:55;6.90;99.90
35894;DHT22;21994;48.204;16.516;2022-11-18T08:14:21;6.80;99.90
35894;DHT22;21994;48.204;16.516;2022-11-18T08:16:48;6.80;99.90
35894;DHT22;21994;48.204;16.516;2022-11-18T08:19:14;6.80;99.90
35894;DHT22;21994;48.204;16.516;2022-11-18T08:21:40;6.90;99.90
35894;DHT22;21994;48.204;16.516;2022-11-18T08:24:08;6.90;99.90
35894;DHT22;21994;48.204;16.516;2022-11-18T08:26:34;6.80;99.90
35894;DHT22;21994;48.204;16.516;2022-11-18T08:29:00;7.00;99.90
35894;DHT22;21994;48.204;16.516;2022-11-18T08:31:26;7.00;99.90
35894;DHT22;21994;48.204;16.516;2022-11-18T08:33:56;7.00;99.90
35894;DHT22;21994;48.204;16.516;2022-11-18T08:36:24;6.90;99.90
35894;DHT22;21994;48.204;16.516;2022-11-18T08:38:53;6.90;99.90
35894;DHT22;21994;48.204;16.516;2022-11-18T08:41:24;7.00;99.90
35894;DHT22;21994;48.204;16.516;2022-11-18T08:43:54;6.90;99.90
35894;DHT22;21994;48.204;16.516;2022-11-18T08:46:20;6.90;99.90
35894;DHT22;21994;48.204;16.516;2022-11-18T08:48:47;6.80;99.90
35894;DHT22;21994;48.204;16.516;2022-11-18T08:51:13;6.80;99.90
35894;DHT22;21994;48.204;16.516;2022-11-18T08:53:40;7.00;99.90
35894;DHT22;21994;48.204;16.516;2022-11-18T08:56:06;7.00;99.90
35894;DHT22;21994;48.204;16.516;2022-11-18T08:58:32;7.10;99.90
35894;DHT22;21994;48.204;16.516;2022-11-18T09:01:02;7.30;99.90
35894;DHT22;21994;48.204;16.516;2022-11-18T09:03:29;7.20;99.90
35894;DHT22;21994;48.204;16.516;2022-11-18T09:06:03;7.20;99.90
35894;DHT22;21994;48.204;16.516;2022-11-18T09:08:39;7.10;99.90
35894;DHT22;21994;48.204;16.516;2022-11-18T09:11:06;7.10;99.90
35894;DHT22;21994;48.204;16.516;2022-11-18T09:13:33;7.30;99.90
35894;DHT22;21994;48.204;16.516;2022-11-18T09:15:59;7.20;99.90
35894;DHT22;21994;48.204;16.516;2022-11-18T09:18:25;7.40;99.90
35894;DHT22;21994;48.204;16.516;2022-11-18T09:20:54;7.40;99.90
35894;DHT22;21994;48.204;16.516;2022-11-18T09:23:21;7.30;99.90
35894;DHT22;21994;48.204;16.516;2022-11-18T09:25:47;7.20;99.90
35894;DHT22;21994;48.204;16.516;2022-11-18T09:28:13;7.20;99.90
35894;DHT22;21994;48.204;16.516;2022-11-18T09:30:38;7.20;99.90
35894;DHT22;21994;48.204;16.516;2022-11-18T09:33:04;7.50;99.90
35894;DHT22;21994;48.204;16.516;2022-11-18T09:35:31;7.40;99.90
35894;DHT22;21994;48.204;16.516;2022-11-18T09:37:58;7.40;99.90
35894;DHT22;21994;48.204;16.516;2022-11-18T09:40:23;7.30;99.90
35894;DHT22;21994;48.204;16.516;2022-11-18T09:45:25;7.30;99.90
35894;DHT22;21994;48.204;16.516;2022-11-18T09:47:55;7.10;99.90
35894;DHT22;21994;48.204;16.516;2022-11-18T09:50:22;7.10;99.90
35894;DHT22;21994;48.204;16.516;2022-11-18T09:55:20;7.30;99.90
35894;DHT22;21994;48.204;16.516;2022-11-18T10:00:20;7.20;99.90
35894;DHT22;21994;48.204;16.516;2022-11-18T10:03:04;7.10;99.90
35894;DHT22;21994;48.204;16.516;2022-11-18T10:08:26;7.40;99.90
35894;DHT22;21994;48.204;16.516;2022-11-18T10:10:58;7.30;99.90
35894;DHT22;21994;48.204;16.516;2022-11-18T10:24:52;7.20;99.90
35894;DHT22;21994;48.204;16.516;2022-11-18T10:27:22;7.20;99.90
35894;DHT22;21994;48.204;16.516;2022-11-18T10:29:51;7.20;99.90
35894;DHT22;21994;48.204;16.516;2022-11-18T10:32:18;7.30;99.90
35894;DHT22;21994;48.204;16.516;2022-11-18T10:37:21;7.20;99.90
35894;DHT22;21994;48.204;16.516;2022-11-18T10:39:55;7.10;99.90
35894;DHT22;21994;48.204;16.516;2022-11-18T10:42:41;7.10;99.90
35894;DHT22;21994;48.204;16.516;2022-11-18T10:47:40;7.00;99.90
35894;DHT22;21994;48.204;16.516;2022-11-18T10:50:49;6.90;99.90
35894;DHT22;21994;48.204;16.516;2022-11-18T10:53:02;6.90;99.90
35894;DHT22;21994;48.204;16.516;2022-11-18T10:55:29;7.00;99.90
35894;DHT22;21994;48.204;16.516;2022-11-18T10:58:08;7.00;99.90
35894;DHT22;21994;48.204;16.516;2022-11-18T11:03:20;6.80;99.90
35894;DHT22;21994;48.204;16.516;2022-11-18T11:05:46;6.80;99.90
35894;DHT22;21994;48.204;16.516;2022-11-18T11:08:19;6.80;99.90
35894;DHT22;21994;48.204;16.516;2022-11-18T11:10:56;6.70;99.90
35894;DHT22;21994;48.204;16.516;2022-11-18T11:13:24;6.80;99.90
35894;DHT22;21994;48.204;16.516;2022-11-18T11:15:52;6.80;99.90
35894;DHT22;21994;48.204;16.516;2022-11-18T11:18:21;7.00;99.90
35894;DHT22;21994;48.204;16.516;2022-11-18T11:21:10;6.90;99.90
35894;DHT22;21994;48.204;16.516;2022-11-18T11:23:40;6.90;99.90
35894;DHT22;21994;48.204;16.516;2022-11-18T11:26:09;6.80;99.90
35894;DHT22;21994;48.204;16.516;2022-11-18T11:28:57;6.80;99.90
35894;DHT22;21994;48.204;16.516;2022-11-18T11:39:12;6.80;99.90
35894;DHT22;21994;48.204;16.516;2022-11-18T11:41:48;6.80;99.90
35894;DHT22;21994;48.204;16.516;2022-11-18T11:47:11;7.10;99.90
35894;DHT22;21994;48.204;16.516;2022-11-18T11:50:02;7.00;99.90
35894;DHT22;21994;48.204;16.516;2022-11-18T11:52:46;7.20;99.90
35894;DHT22;21994;48.204;16.516;2022-11-18T11:58:10;7.20;99.90
35894;DHT22;21994;48.204;16.516;2022-11-18T12:06:07;7.40;99.90
35894;DHT22;21994;48.204;16.516;2022-11-18T12:08:34;7.30;99.90
35894;DHT22;21994;48.204;16.516;2022-11-18T12:16:27;7.30;99.90
35894;DHT22;21994;48.204;16.516;2022-11-18T12:19:00;7.20;99.90
35894;DHT22;21994;48.204;16.516;2022-11-18T12:32:24;7.20;99.90
35894;DHT22;21994;48.204;16.516;2022-11-18T12:40:32;7.10;99.90
35894;DHT22;21994;48.204;16.516;2022-11-18T12:42:58;7.10;99.90
35894;DHT22;21994;48.204;16.516;2022-11-18T12:50:58;6.80;99.90
35894;DHT22;21994;48.204;16.516;2022-11-18T12:56:17;6.70;99.90
35894;DHT22;21994;48.204;16.516;2022-11-18T13:01:20;6.70;99.90
35894;DHT22;21994;48.204;16.516;2022-11-18T13:03:47;6.80;99.90
35894;DHT22;21994;48.204;16.516;2022-11-18T13:09:13;6.70;99.90
35894;DHT22;21994;48.204;16.516;2022-11-18T13:11:51;6.60;99.90
35894;DHT22;21994;48.204;16.516;2022-11-18T13:14:19;6.50;99.90
35894;DHT22;21994;48.204;16.516;2022-11-18T13:23:25;6.30;99.90
35894;DHT22;21994;48.204;16.516;2022-11-18T13:32:11;6.40;99.90
35894;DHT22;21994;48.204;16.516;2022-11-18T13:34:48;6.30;99.90
35894;DHT22;21994;48.204;16.516;2022-11-18T13:37:23;6.20;99.90
35894;DHT22;21994;48.204;16.516;2022-11-18T13:39:51;6.20;99.90
35894;DHT22;21994;48.204;16.516;2022-11-18T13:42:27;6.30;99.90
35894;DHT22;21994;48.204;16.516;2022-11-18T13:44:58;6.20;99.90
35894;DHT22;21994;48.204;16.516;2022-11-18T13:47:27;6.00;99.90
35894;DHT22;21994;48.204;16.516;2022-11-18T13:49:59;6.10;99.90
35894;DHT22;21994;48.204;16.516;2022-11-18T13:52:34;6.10;99.90
35894;DHT22;21994;48.204;16.516;2022-11-18T13:55:50;6.10;99.90
35894;DHT22;21994;48.204;16.516;2022-11-18T13:58:23;6.10;99.90
35894;DHT22;21994;48.204;16.516;2022-11-18T14:00:57;6.00;99.90
35894;DHT22;21994;48.204;16.516;2022-11-18T14:06:05;6.10;99.90
35894;DHT22;21994;48.204;16.516;2022-11-18T14:08:33;6.10;99.90
35894;DHT22;21994;48.204;16.516;2022-11-18T14:11:00;6.00;99.90
35894;DHT22;21994;48.204;16.516;2022-11-18T14:15:58;5.90;99.90
35894;DHT22;21994;48.204;16.516;2022-11-18T14:20:56;5.90;99.90
35894;DHT22;21994;48.204;16.516;2022-11-18T14:23:32;5.80;99.90
35894;DHT22;21994;48.204;16.516;2022-11-18T14:26:03;5.90;99.90
35894;DHT22;21994;48.204;16.516;2022-11-18T14:28:31;5.90;99.90
35894;DHT22;21994;48.204;16.516;2022-11-18T14:33:41;5.90;99.90
35894;DHT22;21994;48.204;16.516;2022-11-18T14:38:44;5.80;99.90
35894;DHT22;21994;48.204;16.516;2022-11-18T14:41:14;5.90;99.90
35894;DHT22;21994;48.204;16.516;2022-11-18T14:44:02;5.70;99.90
35894;DHT22;21994;48.204;16.516;2022-11-18T14:46:28;5.80;99.90
35894;DHT22;21994;48.204;16.516;2022-11-18T14:48:54;5.80;99.90
35894;DHT22;21994;48.204;16.516;2022-11-18T14:51:19;5.70;99.90
35894;DHT22;21994;48.204;16.516;2022-11-18T14:53:45;5.60;99.90
35894;DHT22;21994;48.204;16.516;2022-11-18T14:56:12;5.60;99.90
35894;DHT22;21994;48.204;16.516;2022-11-18T14:58:41;5.60;99.90
35894;DHT22;21994;48.204;16.516;2022-11-18T15:01:08;5.50;99.90
35894;DHT22;21994;48.204;16.516;2022-11-18T15:03:35;5.40;99.90
35894;DHT22;21994;48.204;16.516;2022-11-18T15:06:01;5.30;99.90
35894;DHT22;21994;48.204;16.516;2022-11-18T15:08:27;5.10;99.90
35894;DHT22;21994;48.204;16.516;2022-11-18T15:10:53;5.00;99.90
35894;DHT22;21994;48.204;16.516;2022-11-18T15:13:18;5.10;99.90
35894;DHT22;21994;48.204;16.516;2022-11-18T15:15:44;5.00;99.90
35894;DHT22;21994;48.204;16.516;2022-11-18T15:18:10;4.90;99.90
35894;DHT22;21994;48.204;16.516;2022-11-18T15:20:35;4.70;99.90
35894;DHT22;21994;48.204;16.516;2022-11-18T15:23:01;4.60;99.90
35894;DHT22;21994;48.204;16.516;2022-11-18T15:25:27;4.70;99.90
35894;DHT22;21994;48.204;16.516;2022-11-18T15:27:52;4.70;99.90
35894;DHT22;21994;48.204;16.516;2022-11-18T15:30:18;4.60;99.90
35894;DHT22;21994;48.204;16.516;2022-11-18T15:32:44;4.50;99.90
35894;DHT22;21994;48.204;16.516;2022-11-18T15:35:10;4.40;99.90
35894;DHT22;21994;48.204;16.516;2022-11-18T15:37:37;4.40;99.90
35894;DHT22;21994;48.204;16.516;2022-11-18T15:40:03;4.30;99.90
35894;DHT22;21994;48.204;16.516;2022-11-18T15:42:29;4.20;99.90
35894;DHT22;21994;48.204;16.516;2022-11-18T15:44:55;4.10;99.90
35894;DHT22;21994;48.204;16.516;2022-11-18T15:47:20;4.00;99.90
35894;DHT22;21994;48.204;16.516;2022-11-18T15:49:46;4.10;99.90
35894;DHT22;21994;48.204;16.516;2022-11-18T15:52:12;4.10;99.90
35894;DHT22;21994;48.204;16.516;2022-11-18T15:54:38;4.10;99.90
35894;DHT22;21994;48.204;16.516;2022-11-18T15:57:03;4.10;99.90
35894;DHT22;21994;48.204;16.516;2022-11-18T15:59:29;4.20;99.90
35894;DHT22;21994;48.204;16.516;2022-11-18T16:01:55;4.20;99.90
35894;DHT22;21994;48.204;16.516;2022-11-18T16:04:21;4.20;99.90
35894;DHT22;21994;48.204;16.516;2022-11-18T16:06:46;4.00;99.90
35894;DHT22;21994;48.204;16.516;2022-11-18T16:09:13;4.00;99.90
35894;DHT22;21994;48.204;16.516;2022-11-18T16:11:39;4.00;99.90
35894;DHT22;21994;48.204;16.516;2022-11-18T16:14:23;4.00;99.90
35894;DHT22;21994;48.204;16.516;2022-11-18T16:16:50;3.80;99.90
35894;DHT22;21994;48.204;16.516;2022-11-18T16:19:19;3.80;99.90
35894;DHT22;21994;48.204;16.516;2022-11-18T16:21:46;3.80;99.90
35894;DHT22;21994;48.204;16.516;2022-11-18T16:24:18;3.90;99.90
35894;DHT22;21994;48.204;16.516;2022-11-18T16:26:45;3.90;99.90
35894;DHT22;21994;48.204;16.516;2022-11-18T16:29:11;4.00;99.90
35894;DHT22;21994;48.204;16.516;2022-11-18T16:31:40;4.00;99.90
35894;DHT22;21994;48.204;16.516;2022-11-18T16:34:25;4.00;99.90
35894;DHT22;21994;48.204;16.516;2022-11-18T16:36:53;4.00;99.90
35894;DHT22;21994;48.204;16.516;2022-11-18T16:39:26;4.00;99.90
35894;DHT22;21994;48.204;16.516;2022-11-18T16:41:57;4.00;99.90
35894;DHT22;21994;48.204;16.516;2022-11-18T16:44:23;3.90;99.90
35894;DHT22;21994;48.204;16.516;2022-11-18T16:46:50;3.80;99.90
35894;DHT22;21994;48.204;16.516;2022-11-18T16:49:18;3.70;99.90
35894;DHT22;21994;48.204;16.516;2022-11-18T16:51:45;3.70;99.90
35894;DHT22;21994;48.204;16.516;2022-11-18T16:54:45;3.70;99.90
35894;DHT22;21994;48.204;16.516;2022-11-18T16:57:03;3.60;99.90
35894;DHT22;21994;48.204;16.516;2022-11-18T16:59:29;3.60;99.90
35894;DHT22;21994;48.204;16.516;2022-11-18T17:01:56;3.60;99.90
35894;DHT22;21994;48.204;16.516;2022-11-18T17:04:23;3.50;99.90
35894;DHT22;21994;48.204;16.516;2022-11-18T17:06:50;3.50;99.90
35894;DHT22;21994;48.204;16.516;2022-11-18T17:09:17;3.40;99.90
35894;DHT22;21994;48.204;16.516;2022-11-18T17:11:46;3.40;99.90
35894;DHT22;21994;48.204;16.516;2022-11-18T17:14:12;3.40;99.90
35894;DHT22;21994;48.204;16.516;2022-11-18T17:16:38;3.40;99.90
35894;DHT22;21994;48.204;16.516;2022-11-18T17:19:08;3.40;99.90
35894;DHT22;21994;48.204;16.516;2022-11-18T17:21:37;3.30;99.90
35894;DHT22;21994;48.204;16.516;2022-11-18T17:24:03;3.30;99.90
35894;DHT22;21994;48.204;16.516;2022-11-18T17:26:29;3.30;99.90
35894;DHT22;21994;48.204;16.516;2022-11-18T17:28:55;3.30;99.90
35894;DHT22;21994;48.204;16.516;2022-11-18T17:31:21;3.20;99.90
35894;DHT22;21994;48.204;16.516;2022-11-18T17:33:49;3.20;99.90
35894;DHT22;21994;48.204;16.516;2022-11-18T17:36:17;3.30;99.90
35894;DHT22;21994;48.204;16.516;2022-11-18T17:38:53;3.10;99.90
35894;DHT22;21994;48.204;16.516;2022-11-18T17:41:20;3.10;99.90
35894;DHT22;21994;48.204;16.516;2022-11-18T17:44:07;3.10;99.90
35894;DHT22;21994;48.204;16.516;2022-11-18T17:46:34;3.10;99.90
35894;DHT22;21994;48.204;16.516;2022-11-18T17:49:01;3.00;99.90
35894;DHT22;21994;48.204;16.516;2022-11-18T17:51:28;3.00;99.90
35894;DHT22;21994;48.204;16.516;2022-11-18T17:53:54;2.90;99.90
35894;DHT22;21994;48.204;16.516;2022-11-18T17:56:20;2.90;99.90
35894;DHT22;21994;48.204;16.516;2022-11-18T17:58:47;2.90;99.90
35894;DHT22;21994;48.204;16.516;2022-11-18T18:01:17;2.90;99.90
35894;DHT22;21994;48.204;16.516;2022-11-18T18:03:44;2.90;99.90